Time;durP1;ratioP1;P1;durP2;ratioP2;P2;SDS_P1;SDS_P2;PMS_P1;PMS_P2;Temp;Humidity;BMP_temperature;BMP_pressure;BME280_temperature;BME280_humidity;BME280_pressure;Samples;Min_cycle;Max_cycle;Signal;HPM_P1;HPM_P2
2023/02/12 00:00:51;;;;;;;22.90;14.80;;;;;;;0.76;72.89;100203.84;105846;1251;65512;-72
2023/02/12 00:03:19;;;;;;;22.70;15.60;;;;;;;0.75;73.12;100201.45;106047;1254;59626;-70
2023/02/12 00:05:51;;;;;;;22.30;15.80;;;;;;;0.74;73.46;100197.88;106291;1251;59637;-70
2023/02/12 00:08:21;;;;;;;22.60;14.90;;;;;;;0.74;73.56;100193.89;105564;1254;65929;-70
2023/02/12 00:10:51;;;;;;;22.70;15.90;;;;;;;0.73;73.67;100195.83;105917;1256;60083;-71
2023/02/12 00:13:19;;;;;;;20.40;14.40;;;;;;;0.71;73.84;100193.65;105957;1254;65518;-71
2023/02/12 00:15:48;;;;;;;21.90;16.10;;;;;;;0.71;74.00;100193.49;105795;1257;59681;-70
2023/02/12 00:18:16;;;;;;;19.60;14.50;;;;;;;0.72;74.15;100188.98;105843;1253;59660;-71
2023/02/12 00:20:44;;;;;;;19.40;14.60;;;;;;;0.72;74.24;100185.30;105971;1254;65748;-71
2023/02/12 00:23:13;;;;;;;20.40;15.50;;;;;;;0.73;74.46;100185.98;105994;1254;59761;-71
2023/02/12 00:25:41;;;;;;;20.30;14.80;;;;;;;0.71;74.58;100181.38;105995;1255;64600;-71
2023/02/12 00:28:10;;;;;;;19.10;15.10;;;;;;;0.71;74.83;100181.90;105851;1256;59718;-70
2023/02/12 00:30:39;;;;;;;19.80;14.90;;;;;;;0.71;74.92;100183.27;105622;1254;59669;-70
2023/02/12 00:33:07;;;;;;;19.70;15.00;;;;;;;0.70;75.23;100182.81;105910;1254;65939;-70
2023/02/12 00:35:35;;;;;;;20.10;14.70;;;;;;;0.70;75.42;100177.45;105917;1252;60304;-70
2023/02/12 00:38:03;;;;;;;19.00;13.80;;;;;;;0.69;75.61;100180.25;105650;1254;65514;-69
2023/02/12 00:40:34;;;;;;;18.50;14.00;;;;;;;0.66;75.84;100176.73;105743;1254;59619;-70
2023/02/12 00:43:03;;;;;;;20.50;14.90;;;;;;;0.65;76.02;100180.55;105865;1253;60129;-70
2023/02/12 00:45:31;;;;;;;20.10;15.00;;;;;;;0.65;76.18;100181.60;105772;1254;66107;-70
2023/02/12 00:48:04;;;;;;;20.40;14.80;;;;;;;0.67;76.32;100172.87;105738;1253;59621;-70
2023/02/12 00:50:32;;;;;;;19.10;15.10;;;;;;;0.68;76.44;100174.40;105635;1254;65624;-70
2023/02/12 00:53:00;;;;;;;21.20;15.80;;;;;;;0.68;76.48;100171.95;105491;1254;59739;-70
2023/02/12 00:55:31;;;;;;;25.40;18.20;;;;;;;0.69;76.63;100168.79;105674;1254;59803;-70
2023/02/12 00:58:00;;;;;;;27.10;18.20;;;;;;;0.71;76.91;100167.33;105843;1252;65671;-70
2023/02/12 01:00:29;;;;;;;23.90;17.90;;;;;;;0.74;76.96;100172.71;105614;1257;60209;-70
2023/02/12 01:02:57;;;;;;;19.60;15.20;;;;;;;0.76;77.06;100170.41;105593;1254;65549;-71
2023/02/12 01:05:25;;;;;;;23.00;16.10;;;;;;;0.76;77.29;100167.44;106033;1256;59507;-70
2023/02/12 01:07:56;;;;;;;26.20;17.80;;;;;;;0.77;77.61;100166.71;105980;1256;59490;-70
2023/02/12 01:10:24;;;;;;;25.50;17.90;;;;;;;0.79;77.74;100170.11;105771;1255;65967;-70
2023/02/12 01:12:53;;;;;;;21.40;17.20;;;;;;;0.83;77.95;100174.45;105926;1256;59763;-71
2023/02/12 01:15:21;;;;;;;21.80;16.70;;;;;;;0.85;78.14;100170.68;105938;1254;65528;-70
2023/02/12 01:17:52;;;;;;;19.20;15.90;;;;;;;0.89;78.25;100171.77;105700;1254;59704;-70
2023/02/12 01:20:23;;;;;;;18.70;15.40;;;;;;;0.90;78.43;100171.88;105870;1254;59612;-71
2023/02/12 01:22:52;;;;;;;19.40;15.40;;;;;;;0.93;78.54;100170.73;105714;1257;65710;-70
2023/02/12 01:25:22;;;;;;;19.50;14.90;;;;;;;0.95;78.58;100171.15;105758;1259;59939;-70
2023/02/12 01:27:53;;;;;;;20.50;16.00;;;;;;;0.96;78.69;100171.61;105644;1254;65610;-71
2023/02/12 01:30:23;;;;;;;18.80;15.40;;;;;;;0.98;78.79;100167.54;105746;1253;59730;-73
2023/02/12 01:32:52;;;;;;;19.40;15.70;;;;;;;1.01;78.91;100164.28;105905;1253;59625;-71
2023/02/12 01:35:21;;;;;;;18.50;14.60;;;;;;;1.04;78.89;100159.64;105845;1257;66008;-71
2023/02/12 01:37:49;;;;;;;18.90;14.70;;;;;;;1.07;78.95;100160.73;105705;1253;59809;-70
2023/02/12 01:40:17;;;;;;;18.90;14.80;;;;;;;1.09;78.97;100159.63;105832;1256;64560;-70
2023/02/12 01:42:45;;;;;;;18.60;15.20;;;;;;;1.09;79.03;100158.55;105879;1253;59611;-71
2023/02/12 01:45:14;;;;;;;17.60;14.40;;;;;;;1.11;79.08;100161.77;105891;1253;59654;-71
2023/02/12 01:47:43;;;;;;;19.60;15.60;;;;;;;1.14;79.13;100157.66;105942;1254;64092;-71
2023/02/12 01:50:14;;;;;;;18.60;15.20;;;;;;;1.16;79.18;100161.05;105782;1256;59793;-71
2023/02/12 01:52:47;;;;;;;20.30;15.30;;;;;;;1.17;79.22;100163.95;105859;1254;65308;-70
2023/02/12 01:55:15;;;;;;;16.20;13.60;;;;;;;1.18;79.24;100164.80;105622;1254;59744;-70
2023/02/12 01:57:44;;;;;;;17.90;14.80;;;;;;;1.19;79.24;100165.76;105710;1254;59724;-71
2023/02/12 02:00:16;;;;;;;16.50;13.90;;;;;;;1.21;79.24;100168.98;105801;1254;65929;-71
2023/02/12 02:02:48;;;;;;;19.00;15.30;;;;;;;1.23;79.29;100168.88;105592;1254;60424;-70
2023/02/12 02:05:22;;;;;;;19.40;14.90;;;;;;;1.24;79.31;100172.14;105834;1254;65534;-70
2023/02/12 02:07:50;;;;;;;19.20;14.70;;;;;;;1.24;79.30;100177.50;106228;1254;59724;-70
2023/02/12 02:10:19;;;;;;;19.10;15.20;;;;;;;1.24;79.43;100179.56;105763;1254;59826;-71
2023/02/12 02:15:39;;;;;;;17.90;14.60;;;;;;;1.29;79.59;100184.59;105805;1256;60027;-70
2023/02/12 02:18:11;;;;;;;17.70;14.50;;;;;;;1.31;79.57;100190.04;105759;1253;65537;-70
2023/02/12 02:21:02;;;;;;;;;;;;;;;1.33;79.63;100185.60;105723;1260;59567;-70
2023/02/12 02:23:52;;;;;;;18.70;15.50;;;;;;;1.34;79.63;100189.00;105677;1254;59755;-70
2023/02/12 02:26:51;;;;;;;16.60;13.60;;;;;;;1.36;79.65;100189.13;105698;1256;64692;-70
2023/02/12 02:29:45;;;;;;;17.10;13.80;;;;;;;1.37;79.81;100193.03;105719;1255;60199;-71
2023/02/12 02:32:24;;;;;;;16.70;13.60;;;;;;;1.38;79.81;100200.33;105747;1254;65682;-70
2023/02/12 02:34:55;;;;;;;17.10;14.40;;;;;;;1.39;79.81;100206.48;105629;1254;59621;-70
2023/02/12 02:37:29;;;;;;;17.60;14.90;;;;;;;1.40;79.79;100212.34;105689;1254;60092;-70
2023/02/12 02:40:03;;;;;;;16.30;13.90;;;;;;;1.40;79.79;100216.31;105799;1259;65699;-70
2023/02/12 02:42:41;;;;;;;16.30;13.40;;;;;;;1.42;79.81;100219.38;106386;1258;59930;-71
2023/02/12 02:45:20;;;;;;;16.80;14.00;;;;;;;1.42;79.81;100222.48;105807;1254;65364;-70
2023/02/12 02:47:58;;;;;;;16.10;12.60;;;;;;;1.42;79.96;100224.06;105800;1254;59675;-70
2023/02/12 02:50:27;;;;;;;14.60;12.50;;;;;;;1.42;79.94;100231.02;105695;1254;59699;-70
2023/02/12 02:53:07;;;;;;;14.40;12.60;;;;;;;1.42;79.94;100230.11;105753;1256;65870;-70
2023/02/12 02:55:40;;;;;;;16.30;13.60;;;;;;;1.44;79.97;100234.03;105725;1254;59944;-70
2023/02/12 02:58:11;;;;;;;15.40;13.20;;;;;;;1.45;80.04;100237.13;105640;1259;64438;-73
2023/02/12 03:01:19;;;;;;;14.80;12.30;;;;;;;1.46;80.03;100239.52;105681;1253;59662;-74
2023/02/12 03:04:00;;;;;;;14.20;12.50;;;;;;;1.47;80.03;100246.23;105908;1254;59542;-70
2023/02/12 03:06:38;;;;;;;15.20;12.30;;;;;;;1.48;80.15;100251.55;105913;1256;65751;-70
2023/02/12 03:09:18;;;;;;;14.80;12.50;;;;;;;1.49;80.09;100257.07;105771;1257;59794;-70
2023/02/12 03:11:46;;;;;;;13.70;11.80;;;;;;;1.50;80.13;100263.63;105955;1254;64829;-70
2023/02/12 03:14:18;;;;;;;13.70;11.60;;;;;;;1.51;80.15;100269.84;105857;1254;59613;-70
2023/02/12 03:16:54;;;;;;;13.60;10.90;;;;;;;1.52;80.16;100273.95;106055;1256;59647;-70
2023/02/12 03:19:24;;;;;;;13.40;11.00;;;;;;;1.52;80.20;100279.17;105721;1253;64873;-70
2023/02/12 03:21:59;;;;;;;13.20;11.30;;;;;;;1.51;80.10;100283.18;105695;1258;59724;-69
2023/02/12 03:24:32;;;;;;;13.30;11.00;;;;;;;1.51;80.20;100293.77;105682;1256;64533;-70
2023/02/12 03:27:09;;;;;;;12.50;10.50;;;;;;;1.51;80.20;100301.04;105731;1258;59596;-69
2023/02/12 03:29:38;;;;;;;12.30;10.20;;;;;;;1.52;80.17;100301.34;105806;1253;59660;-70
2023/02/12 03:32:30;;;;;;;11.90;10.30;;;;;;;1.52;80.16;100303.60;105895;1254;65990;-70
2023/02/12 03:35:02;;;;;;;11.30;9.70;;;;;;;1.52;80.15;100306.89;105679;1254;59920;-70
2023/02/12 03:37:39;;;;;;;10.70;8.90;;;;;;;1.53;80.10;100309.45;105820;1254;65481;-70
2023/02/12 03:40:14;;;;;;;12.40;10.10;;;;;;;1.54;80.13;100308.91;105806;1254;61249;-70
2023/02/12 03:42:47;;;;;;;10.90;9.50;;;;;;;1.54;80.13;100316.17;105843;1253;59695;-70
2023/02/12 03:45:25;;;;;;;11.40;9.60;;;;;;;1.55;80.15;100317.54;105585;1258;65730;-71
2023/02/12 03:48:03;;;;;;;9.60;8.50;;;;;;;1.57;80.14;100321.30;105736;1254;59590;-70
2023/02/12 03:50:50;;;;;;;8.80;7.80;;;;;;;1.59;80.10;100331.61;105704;1256;65576;-70
2023/02/12 03:53:18;;;;;;;9.50;7.80;;;;;;;1.60;80.08;100333.13;105703;1254;60396;-71
2023/02/12 03:55:50;;;;;;;7.80;7.00;;;;;;;1.61;80.09;100339.48;105701;1254;60504;-70
2023/02/12 03:58:20;;;;;;;8.00;7.20;;;;;;;1.62;80.10;100344.13;105886;1254;66403;-70
2023/02/12 04:00:49;;;;;;;7.50;6.70;;;;;;;1.62;79.97;100351.58;105791;1256;60405;-71
2023/02/12 04:03:17;;;;;;;8.00;6.90;;;;;;;1.62;79.83;100358.18;105773;1256;64291;-70
2023/02/12 04:05:46;;;;;;;7.50;6.70;;;;;;;1.61;79.77;100356.48;105862;1254;60544;-70
2023/02/12 04:08:15;;;;;;;6.80;6.00;;;;;;;1.61;79.68;100356.50;105876;1253;60418;-70
2023/02/12 04:11:02;;;;;;;5.90;5.30;;;;;;;1.58;79.56;100372.42;105995;1253;66500;-70
2023/02/12 04:13:46;;;;;;;5.00;4.50;;;;;;;1.55;79.43;100375.69;105862;1254;60542;-70
2023/02/12 04:16:56;;;;;;;5.20;4.60;;;;;;;1.54;79.31;100383.20;105987;1254;65325;-70
2023/02/12 04:19:43;;;;;;;4.70;3.90;;;;;;;1.53;79.12;100394.14;105165;1268;60636;-69
2023/02/12 04:22:38;;;;;;;4.20;3.80;;;;;;;1.51;78.92;100403.25;105735;1253;60499;-69
2023/02/12 04:25:31;;;;;;;4.30;3.80;;;;;;;1.48;78.74;100412.76;105599;1256;66741;-70
2023/02/12 04:28:18;;;;;;;5.10;3.70;;;;;;;1.45;78.65;100429.37;105450;1259;60300;-70
2023/02/12 04:30:52;;;;;;;4.60;4.10;;;;;;;1.40;78.54;100433.90;105531;1254;65194;-69
2023/02/12 04:33:20;;;;;;;5.00;3.90;;;;;;;1.36;78.49;100439.11;105658;1254;62260;-69
2023/02/12 04:35:54;;;;;;;5.40;4.80;;;;;;;1.35;78.38;100445.75;105995;1254;60447;-69
2023/02/12 04:38:26;;;;;;;4.30;3.60;;;;;;;1.34;78.34;100452.86;105914;1256;66914;-69
2023/02/12 04:40:53;;;;;;;4.20;3.40;;;;;;;1.35;78.23;100459.95;105752;1253;60760;-69
2023/02/12 04:43:29;;;;;;;3.80;3.30;;;;;;;1.36;78.10;100468.27;105758;1254;65680;-69
2023/02/12 04:45:57;;;;;;;3.20;2.90;;;;;;;1.36;77.90;100476.25;105692;1259;60444;-70
2023/02/12 04:48:26;;;;;;;3.30;2.80;;;;;;;1.35;77.73;100481.30;106082;1252;60433;-71
2023/02/12 04:50:54;;;;;;;3.70;2.60;;;;;;;1.31;77.48;100483.88;106000;1254;65815;-70
2023/02/12 04:53:23;;;;;;;2.30;2.10;;;;;;;1.28;77.22;100489.75;105913;1254;60450;-70
2023/02/12 04:55:51;;;;;;;2.80;2.00;;;;;;;1.25;76.93;100505.11;105712;1254;65552;-70
2023/02/12 04:58:20;;;;;;;2.70;1.70;;;;;;;1.22;76.72;100509.25;105822;1254;60425;-71
2023/02/12 05:00:49;;;;;;;2.20;1.50;;;;;;;1.19;76.50;100520.10;105984;1254;60418;-70
2023/02/12 05:03:17;;;;;;;1.80;1.20;;;;;;;1.18;76.26;100533.32;105969;1256;66592;-70
2023/02/12 05:05:45;;;;;;;1.40;1.10;;;;;;;1.17;75.98;100541.34;106006;1254;60632;-70
2023/02/12 05:08:18;;;;;;;1.10;0.90;;;;;;;1.14;75.52;100541.61;105941;1256;65596;-70
2023/02/12 05:10:47;;;;;;;2.00;1.20;;;;;;;1.12;75.16;100550.36;105874;1253;60457;-70
2023/02/12 05:13:17;;;;;;;1.90;0.90;;;;;;;1.11;74.87;100562.52;105867;1253;60437;-70
2023/02/12 05:15:45;;;;;;;1.30;0.80;;;;;;;1.11;74.66;100570.16;105766;1254;66490;-70
2023/02/12 05:18:13;;;;;;;2.30;0.90;;;;;;;1.12;74.46;100574.13;105832;1254;60510;-70
2023/02/12 05:20:42;;;;;;;0.90;0.60;;;;;;;1.11;74.08;100583.52;105764;1254;65792;-71
2023/02/12 05:23:10;;;;;;;1.60;0.70;;;;;;;1.09;73.71;100592.26;105930;1256;60494;-70
2023/02/12 05:25:38;;;;;;;2.40;0.70;;;;;;;1.08;73.49;100602.70;105793;1254;60600;-70
2023/02/12 05:28:07;;;;;;;1.90;0.80;;;;;;;1.06;73.16;100613.86;105873;1256;66629;-71
2023/02/12 05:30:36;;;;;;;1.30;0.60;;;;;;;1.04;72.88;100622.62;105884;1256;60331;-70
2023/02/12 05:33:05;;;;;;;1.50;0.70;;;;;;;1.02;72.55;100631.02;105899;1254;65732;-69
2023/02/12 05:35:34;;;;;;;2.50;0.90;;;;;;;0.96;71.74;100631.41;105672;1254;60530;-70
2023/02/12 05:38:03;;;;;;;1.30;0.60;;;;;;;0.87;71.14;100640.22;105806;1256;60378;-70
2023/02/12 05:40:34;;;;;;;1.90;0.70;;;;;;;0.80;70.72;100649.67;105838;1254;66633;-71
2023/02/12 05:43:02;;;;;;;2.20;0.70;;;;;;;0.74;70.06;100662.33;105981;1254;60421;-70
2023/02/12 05:45:32;;;;;;;2.50;0.50;;;;;;;0.68;69.51;100667.04;105861;1253;65300;-70
2023/02/12 05:48:01;;;;;;;2.40;0.80;;;;;;;0.63;69.30;100670.51;105866;1254;60387;-70
2023/02/12 05:50:29;;;;;;;3.00;0.60;;;;;;;0.61;68.95;100676.16;105855;1254;60521;-70
2023/02/12 05:53:00;;;;;;;2.60;0.60;;;;;;;0.57;68.49;100684.58;105859;1256;66574;-72
2023/02/12 05:55:28;;;;;;;2.00;0.70;;;;;;;0.53;68.25;100689.04;105910;1254;60574;-71
2023/02/12 05:57:57;;;;;;;1.80;0.60;;;;;;;0.51;67.98;100696.39;105952;1254;65575;-69
2023/02/12 06:00:27;;;;;;;3.00;0.70;;;;;;;0.48;67.81;100704.27;106299;1253;60367;-69
2023/02/12 06:02:56;;;;;;;0.90;0.40;;;;;;;0.46;67.43;100701.94;106162;1254;60514;-69
2023/02/12 06:05:25;;;;;;;2.30;0.60;;;;;;;0.42;67.09;100703.81;106103;1254;66748;-69
2023/02/12 06:07:54;;;;;;;1.20;0.50;;;;;;;0.39;66.94;100707.38;105836;1253;60614;-69
2023/02/12 06:10:22;;;;;;;2.40;0.80;;;;;;;0.38;66.76;100708.08;105874;1254;65261;-69
2023/02/12 06:12:55;;;;;;;3.20;2.20;;;;;;;0.38;66.51;100706.86;105838;1254;60425;-70
2023/02/12 06:15:23;;;;;;;3.90;1.70;;;;;;;0.36;66.28;100716.97;105657;1254;60506;-69
2023/02/12 06:17:51;;;;;;;1.90;1.10;;;;;;;0.34;66.19;100715.12;105766;1255;66549;-69
2023/02/12 06:20:20;;;;;;;2.30;0.90;;;;;;;0.34;65.85;100717.57;106207;1254;60483;-70
2023/02/12 06:22:48;;;;;;;1.60;1.00;;;;;;;0.33;65.57;100728.16;106013;1256;66554;-69
2023/02/12 06:25:16;;;;;;;2.50;1.30;;;;;;;0.32;65.44;100738.23;105833;1256;60543;-70
2023/02/12 06:27:45;;;;;;;2.10;0.80;;;;;;;0.32;65.27;100744.30;105773;1254;60516;-70
2023/02/12 06:30:15;;;;;;;1.50;0.80;;;;;;;0.31;64.93;100751.45;105828;1256;66341;-70
2023/02/12 06:32:43;;;;;;;2.10;1.00;;;;;;;0.29;64.69;100753.75;105949;1254;60509;-70
2023/02/12 06:35:12;;;;;;;2.20;0.80;;;;;;;0.26;64.37;100763.36;105653;1254;65499;-70
2023/02/12 06:37:40;;;;;;;2.40;1.20;;;;;;;0.24;64.20;100762.22;105642;1254;60441;-69
2023/02/12 06:40:09;;;;;;;1.90;0.70;;;;;;;0.24;64.19;100775.02;105887;1253;60517;-69
2023/02/12 07:06:09;;;;;;;10.50;7.20;;;;;;;0.66;61.52;100811.48;102165;1295;607384;-71
2023/02/12 07:08:36;;;;;;;3.60;1.90;;;;;;;0.77;60.79;100828.48;105271;1264;114178;-70
2023/02/12 07:11:03;;;;;;;2.30;1.10;;;;;;;0.70;60.64;100825.41;105821;1257;58345;-71
2023/02/12 07:13:33;;;;;;;1.80;0.80;;;;;;;0.64;60.47;100824.72;105497;1254;64089;-71
2023/02/12 07:16:08;;;;;;;1.20;0.70;;;;;;;0.61;60.37;100830.73;105712;1260;59282;-70
2023/02/12 07:18:37;;;;;;;2.10;1.10;;;;;;;0.57;60.01;100839.32;105881;1260;65738;-70
2023/02/12 07:21:05;;;;;;;1.50;0.60;;;;;;;0.54;59.84;100848.05;105675;1262;59252;-71
2023/02/12 07:23:32;;;;;;;1.60;0.70;;;;;;;0.52;59.68;100853.34;105653;1255;59212;-72
2023/02/12 07:26:01;;;;;;;3.20;0.80;;;;;;;0.50;59.67;100856.16;105435;1260;65052;-73
2023/02/12 07:28:36;;;;;;;1.30;0.70;;;;;;;0.49;59.51;100858.09;106005;1257;59922;-71
2023/02/12 07:31:08;;;;;;;2.20;1.00;;;;;;;0.46;59.40;100858.88;106064;1257;65436;-71
2023/02/12 07:45:27;;;;;;;3.10;1.10;;;;;;;0.68;58.52;100879.20;103608;1284;606915;-71
2023/02/12 07:49:05;;;;;;;1.70;0.90;;;;;;;0.75;57.53;100904.27;106521;1264;99360;-69
2023/02/12 07:51:34;;;;;;;2.70;1.00;;;;;;;0.69;57.61;100909.16;104769;1265;59234;-70
2023/02/12 07:54:01;;;;;;;1.60;0.60;;;;;;;0.64;57.46;100910.34;105066;1267;65348;-70
2023/02/12 07:56:31;;;;;;;2.00;0.80;;;;;;;0.61;57.38;100919.26;104914;1272;59938;-70
2023/02/12 07:58:59;;;;;;;2.20;0.70;;;;;;;0.62;57.40;100931.21;105100;1269;65304;-70
2023/02/12 08:01:32;;;;;;;2.50;0.60;;;;;;;0.59;57.04;100932.52;104871;1269;59252;-71
2023/02/12 08:04:05;;;;;;;1.50;0.60;;;;;;;0.57;57.10;100941.38;105147;1269;59355;-70
2023/02/12 08:06:34;;;;;;;2.10;0.60;;;;;;;0.56;56.83;100945.04;105011;1269;65146;-73
2023/02/12 08:09:02;;;;;;;2.00;0.60;;;;;;;0.53;56.31;100945.48;105378;1268;59807;-71
2023/02/12 08:11:30;;;;;;;1.60;0.60;;;;;;;0.51;56.15;100951.80;104684;1264;64575;-70
2023/02/12 08:13:59;;;;;;;1.80;0.80;;;;;;;0.52;56.36;100955.03;104946;1271;59675;-69
2023/02/12 08:16:26;;;;;;;2.50;0.90;;;;;;;0.55;56.38;100956.16;105069;1269;59532;-70
2023/02/12 08:18:54;;;;;;;1.90;0.90;;;;;;;0.61;56.54;100964.34;105543;1269;66178;-70
2023/02/12 08:21:23;;;;;;;1.60;0.80;;;;;;;0.64;56.23;100962.67;104762;1272;59701;-69
2023/02/12 08:23:50;;;;;;;2.00;1.00;;;;;;;0.64;56.13;100964.06;105064;1269;65702;-71
2023/02/12 08:26:19;;;;;;;1.40;0.80;;;;;;;0.65;56.11;100965.92;105137;1270;59648;-70
2023/02/12 08:28:47;;;;;;;2.80;1.00;;;;;;;0.68;56.10;100967.41;105339;1269;59675;-70
2023/02/12 08:31:18;;;;;;;3.90;1.10;;;;;;;0.68;55.74;100978.33;105251;1269;66257;-71
2023/02/12 08:33:46;;;;;;;2.90;1.30;;;;;;;0.67;55.68;100984.42;105288;1270;59937;-70
2023/02/12 08:36:14;;;;;;;1.80;0.90;;;;;;;0.68;55.88;100989.23;105228;1260;65346;-71
2023/02/12 08:38:42;;;;;;;2.00;1.10;;;;;;;0.70;55.79;100985.20;105642;1261;59545;-70
2023/02/12 08:41:16;;;;;;;2.70;1.40;;;;;;;0.72;55.85;100987.77;106050;1259;59749;-72
2023/02/12 08:43:48;;;;;;;2.70;0.90;;;;;;;0.74;55.80;100989.60;105808;1263;65785;-70
2023/02/12 08:46:19;;;;;;;2.00;1.20;;;;;;;0.75;55.68;100996.67;105810;1260;59938;-71
2023/02/12 08:48:47;;;;;;;1.70;0.90;;;;;;;0.75;55.56;100998.04;105778;1257;65697;-71
2023/02/12 08:51:18;;;;;;;1.40;0.90;;;;;;;0.74;55.68;101006.40;105895;1262;59628;-71
2023/02/12 08:53:46;;;;;;;2.40;1.30;;;;;;;0.74;55.92;101011.94;105815;1260;61243;-71
2023/02/12 08:56:15;;;;;;;2.20;1.40;;;;;;;0.77;56.16;101012.05;105592;1258;65764;-71
2023/02/12 08:58:41;;;;;;;2.00;1.20;;;;;;;0.79;56.03;101016.14;105849;1262;60089;-71
2023/02/12 09:01:19;;;;;;;2.90;1.30;;;;;;;0.82;56.19;101017.27;106199;1258;65649;-71
2023/02/12 09:03:46;;;;;;;3.60;1.80;;;;;;;0.85;56.09;101023.92;106516;1257;59615;-70
2023/02/12 09:06:14;;;;;;;2.40;1.20;;;;;;;0.88;55.92;101019.52;105639;1262;59577;-70
2023/02/12 09:08:41;;;;;;;2.70;1.30;;;;;;;0.90;55.74;101023.80;105842;1263;65890;-71
2023/02/12 09:11:29;;;;;;;3.00;1.30;;;;;;;0.91;55.35;101020.83;105693;1261;59722;-71
2023/02/12 09:14:00;;;;;;;2.70;1.10;;;;;;;0.90;55.05;101028.30;105735;1260;65518;-70
2023/02/12 09:16:27;;;;;;;1.70;0.90;;;;;;;0.89;54.78;101037.38;105869;1259;59628;-71
2023/02/12 09:18:54;;;;;;;3.00;1.10;;;;;;;0.85;54.30;101031.40;105895;1259;60238;-75
2023/02/12 09:21:21;;;;;;;1.80;0.90;;;;;;;0.82;54.42;101039.61;105594;1260;65570;-69
2023/02/12 09:23:49;;;;;;;4.60;1.50;;;;;;;0.87;54.75;101041.55;105939;1258;59765;-72
2023/02/12 09:26:20;;;;;;;3.50;1.30;;;;;;;0.99;54.94;101039.66;105942;1255;65333;-73
2023/02/12 09:28:54;;;;;;;2.00;1.10;;;;;;;1.08;54.60;101037.98;106902;1257;60030;-74
2023/02/12 09:31:25;;;;;;;3.20;1.40;;;;;;;1.11;54.25;101041.38;105774;1255;59612;-72
2023/02/12 09:33:53;;;;;;;2.70;1.20;;;;;;;1.11;54.14;101047.46;105683;1260;64760;-73
2023/02/12 09:36:21;;;;;;;2.10;1.30;;;;;;;1.11;54.26;101049.02;105700;1259;59625;-71
2023/02/12 09:38:48;;;;;;;2.50;1.20;;;;;;;1.11;54.04;101055.79;105774;1267;65317;-74
2023/02/12 09:41:43;;;;;;;2.50;1.10;;;;;;;1.12;53.98;101053.67;105756;1257;59529;-74
2023/02/12 09:44:31;;;;;;;2.90;1.20;;;;;;;1.11;53.71;101051.08;105848;1258;59997;-73
2023/02/12 09:47:16;;;;;;;2.20;1.00;;;;;;;1.09;53.41;101054.64;105557;1259;65875;-74
2023/02/12 09:49:44;;;;;;;2.80;1.00;;;;;;;1.02;52.96;101050.15;105826;1258;59839;-74
2023/02/12 09:52:16;;;;;;;3.90;1.30;;;;;;;0.98;53.08;101054.08;105881;1254;65614;-74
2023/02/12 09:54:43;;;;;;;3.00;1.10;;;;;;;1.05;53.35;101053.19;105720;1260;59729;-73
2023/02/12 09:57:18;;;;;;;3.90;2.00;;;;;;;1.18;53.53;101050.71;105836;1254;59841;-74
2023/02/12 09:59:50;;;;;;;4.40;1.30;;;;;;;1.32;53.48;101051.85;105901;1260;64909;-72
2023/02/12 10:02:18;;;;;;;2.70;1.30;;;;;;;1.44;53.48;101057.41;105889;1254;60379;-73
2023/02/12 10:04:46;;;;;;;4.30;1.50;;;;;;;1.52;53.06;101056.27;105894;1260;65473;-74
2023/02/12 10:07:30;;;;;;;5.00;1.60;;;;;;;1.51;52.68;101063.44;105736;1263;59635;-73
2023/02/12 10:10:13;;;;;;;2.70;1.40;;;;;;;1.50;52.77;101064.33;105862;1254;59986;-74
2023/02/12 10:12:50;;;;;;;2.10;1.30;;;;;;;1.53;52.76;101067.33;105780;1258;66065;-73
2023/02/12 10:15:59;;;;;;;2.50;1.30;;;;;;;1.65;52.94;101069.93;105679;1257;60065;-74
2023/02/12 10:19:00;;;;;;;2.40;1.30;;;;;;;1.91;53.31;101065.95;105607;1260;65221;-73
2023/02/12 10:21:40;;;;;;;3.80;1.50;;;;;;;2.23;53.38;101072.53;105756;1259;59633;-73
2023/02/12 10:24:19;;;;;;;3.10;1.30;;;;;;;2.47;52.56;101074.64;105888;1260;59730;-71
2023/02/12 10:26:48;;;;;;;2.50;1.10;;;;;;;2.62;51.99;101079.19;105896;1260;65988;-73
2023/02/12 10:29:20;;;;;;;3.00;1.10;;;;;;;2.67;51.17;101079.52;105726;1254;59497;-75
2023/02/12 10:31:52;;;;;;;2.80;1.20;;;;;;;2.65;50.60;101077.00;105780;1257;65357;-74
2023/02/12 10:34:21;;;;;;;2.70;1.00;;;;;;;2.69;50.62;101075.99;105964;1254;59761;-75
2023/02/12 10:36:51;;;;;;;1.60;0.90;;;;;;;2.83;50.40;101074.41;106016;1254;59573;-72
2023/02/12 10:39:18;;;;;;;1.90;1.00;;;;;;;2.98;50.33;101078.56;105739;1260;65139;-75
2023/02/12 10:41:51;;;;;;;2.30;1.10;;;;;;;3.19;50.24;101078.64;105719;1254;60184;-73
2023/02/12 10:44:18;;;;;;;;;;;;;;;3.42;50.11;101068.04;105833;1259;65590;-74
2023/02/12 10:46:49;;;;;;;3.40;1.40;;;;;;;3.67;50.32;101065.80;105829;1257;59739;-77
2023/02/12 10:49:17;;;;;;;2.70;1.20;;;;;;;3.91;50.30;101066.07;106007;1254;59660;-80
2023/02/12 10:52:07;;;;;;;4.30;1.20;;;;;;;4.19;50.22;101065.07;106208;1254;65753;-77
2023/02/12 10:54:41;;;;;;;2.30;1.10;;;;;;;4.51;49.66;101063.35;105928;1261;60187;-78
2023/02/12 10:57:18;;;;;;;4.80;1.10;;;;;;;4.73;48.94;101062.58;106071;1254;65644;-81
2023/02/12 10:59:45;;;;;;;2.40;1.40;;;;;;;4.77;47.24;101059.27;105805;1260;59639;-75
2023/02/12 11:02:32;;;;;;;2.10;1.20;;;;;;;4.76;47.28;101058.64;105933;1254;61128;-80
2023/02/12 11:05:00;;;;;;;2.30;1.20;;;;;;;4.82;46.66;101059.75;106322;1255;65942;-77
2023/02/12 11:07:27;;;;;;;1.60;1.10;;;;;;;4.80;45.81;101057.75;105765;1260;59933;-75
2023/02/12 11:09:55;;;;;;;1.90;1.00;;;;;;;4.76;45.71;101054.94;105717;1257;65524;-71
2023/02/12 11:12:32;;;;;;;1.90;1.00;;;;;;;4.74;45.68;101057.49;105853;1267;59593;-72
2023/02/12 11:15:02;;;;;;;2.00;1.00;;;;;;;4.70;45.45;101057.63;105787;1254;59676;-72
2023/02/12 11:17:36;;;;;;;1.90;1.10;;;;;;;4.65;45.48;101064.69;105861;1254;64959;-70
2023/02/12 11:20:20;;;;;;;2.70;1.30;;;;;;;4.64;45.81;101062.29;105498;1261;59822;-72
2023/02/12 11:23:01;;;;;;;2.10;0.90;;;;;;;4.70;46.18;101065.52;105447;1254;65754;-73
2023/02/12 11:25:30;;;;;;;5.00;1.70;;;;;;;4.90;46.79;101066.17;105648;1260;59676;-72
2023/02/12 11:28:14;;;;;;;3.80;1.40;;;;;;;5.17;46.84;101063.89;105559;1261;60040;-72
2023/02/12 11:30:52;;;;;;;2.40;1.10;;;;;;;5.41;46.23;101062.27;105705;1259;66045;-72
2023/02/12 11:33:22;;;;;;;3.20;1.50;;;;;;;5.64;45.91;101062.23;105561;1259;60252;-71
2023/02/12 11:36:09;;;;;;;4.60;1.90;;;;;;;5.83;45.58;101059.38;105761;1260;66340;-72
2023/02/12 11:38:38;;;;;;;4.70;2.00;;;;;;;5.92;44.67;101064.36;105562;1260;59723;-70
2023/02/12 11:41:28;;;;;;;3.60;1.70;;;;;;;5.83;44.00;101063.77;105652;1257;60123;-73
2023/02/12 11:43:54;;;;;;;3.20;1.40;;;;;;;5.55;42.87;101059.86;105518;1259;65746;-73
2023/02/12 11:46:24;;;;;;;2.10;1.40;;;;;;;5.24;43.70;101063.44;105609;1260;59742;-74
2023/02/12 11:48:51;;;;;;;4.00;1.40;;;;;;;5.13;44.48;101065.14;105555;1254;64486;-74
2023/02/12 11:51:25;;;;;;;3.40;1.50;;;;;;;5.18;44.76;101064.89;107458;1254;59659;-74
2023/02/12 11:53:52;;;;;;;2.70;1.40;;;;;;;5.33;45.27;101059.83;105593;1254;59637;-73
2023/02/12 11:56:19;;;;;;;2.50;1.60;;;;;;;5.56;44.55;101065.41;105735;1254;65912;-74
2023/02/12 11:58:47;;;;;;;3.10;1.40;;;;;;;5.80;45.14;101063.39;105749;1254;59870;-74
2023/02/12 12:01:27;;;;;;;2.40;1.30;;;;;;;6.07;44.44;101058.94;105772;1254;74697;-74
2023/02/12 12:04:02;;;;;;;3.90;1.30;;;;;;;6.22;44.20;101064.10;105676;1261;60386;-74
2023/02/12 12:06:44;;;;;;;2.80;1.20;;;;;;;6.39;43.74;101067.44;105729;1254;60537;-75
2023/02/12 12:09:17;;;;;;;2.90;1.40;;;;;;;6.61;43.57;101063.52;105600;1260;66712;-73
2023/02/12 12:12:04;;;;;;;23.60;1.70;;;;;;;6.84;42.49;101063.53;105627;1260;60419;-74
2023/02/12 12:19:51;;;;;;;5.20;1.50;;;;;;;6.84;41.36;101058.95;105755;1255;65623;-73
2023/02/12 12:20:16;;;;;;;2.50;0.90;;;;;;;6.47;40.48;101067.73;105783;1254;60437;-74
2023/02/12 12:23:10;;;;;;;3.40;1.30;;;;;;;6.33;41.62;101057.27;105664;1257;66744;-74
2023/02/12 12:25:51;;;;;;;5.20;1.00;;;;;;;6.30;40.95;101059.16;105751;1257;60652;-74
2023/02/12 12:28:42;;;;;;;3.30;1.30;;;;;;;6.17;41.16;101061.71;105746;1254;65770;-74